PWSweather.com
Personal Weather Stations
Station Observations
AC5CV
Greenleaf Peninsula, Waco, TX 76710

Greenleaf PeninsulaWaco, TX 76710

Lat: 31.565, Lon: -97.198

Elevation: 570

Station Type: Ambient WS2080

http://johnchamber.dyndns.info/

High Low Average
Temperature 95.5°F35.3°C 77.0°F25.0°C 85.0°F29.4°C
Dew Point 73.7°F23.2°C 67.4°F19.7°C 71.0°F21.7°C
Winds 12.7 mph 20.4 kmh 2.6 mph 4.2 kmh 7.0 mph S11.3 kmh S
Wind Gusts 24.8 mph39.9 kmh 4.9 mph7.9 kmh 13.0 mph20.9 kmh
Humidity 89% 40% 65%
Pressure 29.20 in988.8 mb 29.07 in984.4 mb -
Precipitation 0.00 in0.0 mm - -
Hour Temp Dew Point Humidity Winds Wind Gusts Pressure Precip Precip Rate Daily Precip Total
12:00 AM 82.4°F28.0°C 71.0°F21.7°C 69% 8.4 mph SSE13.5 kmh SSE 12.3 mph19.8 kmh 29.15 in987.1 mb 0.00 in0.0 mm 0.00 in0.0 mm 0.00 in0.0 mm
12:05 AM 81.9°F27.7°C 70.7°F21.5°C 69% 7.5 mph SSE12.1 kmh SSE 12.3 mph19.8 kmh 29.16 in987.5 mb 0.00 in0.0 mm 0.00 in0.0 mm 0.00 in0.0 mm
12:10 AM 81.7°F27.6°C 70.6°F21.4°C 69% 8.3 mph SSE13.4 kmh SSE 15.0 mph24.1 kmh 29.15 in987.1 mb 0.00 in0.0 mm 0.00 in0.0 mm 0.00 in0.0 mm
12:15 AM 81.7°F27.6°C 70.9°F21.6°C 70% 7.0 mph SSE11.3 kmh SSE 17.4 mph28.0 kmh 29.15 in987.1 mb 0.00 in0.0 mm 0.00 in0.0 mm 0.00 in0.0 mm
12:20 AM 81.7°F27.6°C 70.9°F21.6°C 70% 7.1 mph SSE11.4 kmh SSE 17.4 mph28.0 kmh 29.15 in987.1 mb 0.00 in0.0 mm 0.00 in0.0 mm 0.00 in0.0 mm
12:25 AM 81.7°F27.6°C 70.9°F21.6°C 70% 8.8 mph S14.2 kmh S 15.0 mph24.1 kmh 29.15 in987.1 mb 0.00 in0.0 mm 0.00 in0.0 mm 0.00 in0.0 mm
12:30 AM 81.7°F27.6°C 71.3°F21.8°C 71% 6.7 mph SSE10.8 kmh SSE 19.9 mph32.0 kmh 29.15 in987.1 mb 0.00 in0.0 mm 0.00 in0.0 mm 0.00 in0.0 mm
12:35 AM 81.7°F27.6°C 71.4°F21.9°C 71% 7.1 mph S11.4 kmh S 12.3 mph19.8 kmh 29.15 in987.1 mb 0.00 in0.0 mm 0.00 in0.0 mm 0.00 in0.0 mm
12:40 AM 81.7°F27.6°C 71.4°F21.9°C 71% 7.3 mph SSE11.7 kmh SSE 15.0 mph24.1 kmh 29.15 in987.1 mb 0.00 in0.0 mm 0.00 in0.0 mm 0.00 in0.0 mm
12:45 AM 81.3°F27.4°C 71.3°F21.8°C 72% 3.9 mph S6.3 kmh S 7.4 mph11.9 kmh 29.15 in987.1 mb 0.00 in0.0 mm 0.00 in0.0 mm 0.00 in0.0 mm
12:50 AM 81.3°F27.4°C 71.4°F21.9°C 72% 6.5 mph SW10.5 kmh SW 12.3 mph19.8 kmh 29.15 in987.1 mb 0.00 in0.0 mm 0.00 in0.0 mm 0.00 in0.0 mm
12:55 AM 81.3°F27.4°C 71.5°F21.9°C 72% 7.5 mph SSW12.1 kmh SSW 17.4 mph28.0 kmh 29.15 in987.1 mb 0.00 in0.0 mm 0.00 in0.0 mm 0.00 in0.0 mm
01:00 AM 81.3°F27.4°C 71.8°F22.1°C 73% 8.0 mph SSE12.9 kmh SSE 12.3 mph19.8 kmh 29.15 in987.1 mb 0.00 in0.0 mm 0.00 in0.0 mm 0.00 in0.0 mm
01:05 AM 81.1°F27.3°C 71.6°F22.0°C 73% 8.5 mph SSE13.7 kmh SSE 15.0 mph24.1 kmh 29.15 in987.1 mb 0.00 in0.0 mm 0.00 in0.0 mm 0.00 in0.0 mm
01:10 AM 81.1°F27.3°C 71.7°F22.1°C 73% 8.4 mph SSE13.5 kmh SSE 12.3 mph19.8 kmh 29.15 in987.1 mb 0.00 in0.0 mm 0.00 in0.0 mm 0.00 in0.0 mm
01:15 AM 81.1°F27.3°C 72.0°F22.2°C 74% 7.5 mph S12.1 kmh S 12.3 mph19.8 kmh 29.15 in987.1 mb 0.00 in0.0 mm 0.00 in0.0 mm 0.00 in0.0 mm
01:20 AM 81.1°F27.3°C 72.0°F22.2°C 74% 7.2 mph SSE11.6 kmh SSE 12.3 mph19.8 kmh 29.15 in987.1 mb 0.00 in0.0 mm 0.00 in0.0 mm 0.00 in0.0 mm
01:25 AM 80.6°F27.0°C 72.1°F22.3°C 75% 7.3 mph S11.7 kmh S 15.0 mph24.1 kmh 29.15 in987.1 mb 0.00 in0.0 mm 0.00 in0.0 mm 0.00 in0.0 mm
01:30 AM 80.6°F27.0°C 72.3°F22.4°C 76% 7.9 mph SSE12.7 kmh SSE 15.0 mph24.1 kmh 29.14 in986.8 mb 0.00 in0.0 mm 0.00 in0.0 mm 0.00 in0.0 mm
01:35 AM 80.6°F27.0°C 72.3°F22.4°C 76% 11.3 mph S18.2 kmh S 22.4 mph36.0 kmh 29.14 in986.8 mb 0.00 in0.0 mm 0.00 in0.0 mm 0.00 in0.0 mm
01:40 AM 80.5°F26.9°C 72.4°F22.4°C 76% 6.0 mph SSE9.7 kmh SSE 15.0 mph24.1 kmh 29.14 in986.8 mb 0.00 in0.0 mm 0.00 in0.0 mm 0.00 in0.0 mm
01:45 AM 79.7°F26.5°C 71.8°F22.1°C 77% 7.4 mph SSE11.9 kmh SSE 12.3 mph19.8 kmh 29.15 in987.1 mb 0.00 in0.0 mm 0.00 in0.0 mm 0.00 in0.0 mm
01:50 AM 79.6°F26.4°C 71.7°F22.1°C 77% 5.9 mph S9.5 kmh S 15.0 mph24.1 kmh 29.14 in986.8 mb 0.00 in0.0 mm 0.00 in0.0 mm 0.00 in0.0 mm
01:55 AM 79.5°F26.4°C 71.6°F22.0°C 77% 7.7 mph SSE12.4 kmh SSE 15.0 mph24.1 kmh 29.14 in986.8 mb 0.00 in0.0 mm 0.00 in0.0 mm 0.00 in0.0 mm
02:00 AM 79.5°F26.4°C 71.6°F22.0°C 77% 7.7 mph SSE12.4 kmh SSE 15.0 mph24.1 kmh 29.14 in986.8 mb 0.00 in0.0 mm 0.00 in0.0 mm 0.00 in0.0 mm
02:05 AM 79.3°F26.3°C 71.5°F21.9°C 77% 9.0 mph S14.5 kmh S 15.0 mph24.1 kmh 29.14 in986.8 mb 0.00 in0.0 mm 0.00 in0.0 mm 0.00 in0.0 mm
02:10 AM 79.2°F26.2°C 71.7°F22.1°C 78% 5.6 mph S9.0 kmh S 15.0 mph24.1 kmh 29.14 in986.8 mb 0.00 in0.0 mm 0.00 in0.0 mm 0.00 in0.0 mm
02:15 AM 79.2°F26.2°C 71.9°F22.2°C 78% 8.3 mph S13.4 kmh S 15.0 mph24.1 kmh 29.14 in986.8 mb 0.00 in0.0 mm 0.00 in0.0 mm 0.00 in0.0 mm
02:20 AM 79.2°F26.2°C 72.1°F22.3°C 79% 6.8 mph SSE10.9 kmh SSE 12.3 mph19.8 kmh 29.14 in986.8 mb 0.00 in0.0 mm 0.00 in0.0 mm 0.00 in0.0 mm
02:25 AM 78.8°F26.0°C 72.2°F22.3°C 80% 6.9 mph S11.1 kmh S 12.3 mph19.8 kmh 29.14 in986.8 mb 0.00 in0.0 mm 0.00 in0.0 mm 0.00 in0.0 mm
02:30 AM 78.6°F25.9°C 72.3°F22.4°C 81% 6.8 mph SSE10.9 kmh SSE 15.0 mph24.1 kmh 29.14 in986.8 mb 0.00 in0.0 mm 0.00 in0.0 mm 0.00 in0.0 mm
02:35 AM 78.6°F25.9°C 72.3°F22.4°C 81% 7.3 mph SSE11.7 kmh SSE 15.0 mph24.1 kmh 29.14 in986.8 mb 0.00 in0.0 mm 0.00 in0.0 mm 0.00 in0.0 mm
02:40 AM 78.6°F25.9°C 72.6°F22.6°C 82% 5.0 mph S8.0 kmh S 12.3 mph19.8 kmh 29.14 in986.8 mb 0.00 in0.0 mm 0.00 in0.0 mm 0.00 in0.0 mm
02:45 AM 78.6°F25.9°C 72.6°F22.6°C 82% 5.2 mph SW8.4 kmh SW 12.3 mph19.8 kmh 29.14 in986.8 mb 0.00 in0.0 mm 0.00 in0.0 mm 0.00 in0.0 mm
02:50 AM 78.6°F25.9°C 72.6°F22.6°C 82% 4.9 mph SSE7.9 kmh SSE 9.8 mph15.8 kmh 29.14 in986.8 mb 0.00 in0.0 mm 0.00 in0.0 mm 0.00 in0.0 mm
02:55 AM 78.6°F25.9°C 72.9°F22.7°C 83% 8.0 mph SSW12.9 kmh SSW 15.0 mph24.1 kmh 29.15 in987.1 mb 0.00 in0.0 mm 0.00 in0.0 mm 0.00 in0.0 mm
03:00 AM 78.6°F25.9°C 73.0°F22.8°C 83% 7.1 mph SSE11.4 kmh SSE 17.4 mph28.0 kmh 29.15 in987.1 mb 0.00 in0.0 mm 0.00 in0.0 mm 0.00 in0.0 mm
03:05 AM 78.6°F25.9°C 73.0°F22.8°C 83% 7.5 mph SE12.1 kmh SE 12.3 mph19.8 kmh 29.14 in986.8 mb 0.00 in0.0 mm 0.00 in0.0 mm 0.00 in0.0 mm
03:10 AM 78.4°F25.8°C 72.9°F22.7°C 83% 6.5 mph SSE10.5 kmh SSE 12.3 mph19.8 kmh 29.15 in987.1 mb 0.00 in0.0 mm 0.00 in0.0 mm 0.00 in0.0 mm
03:15 AM 78.2°F25.7°C 73.0°F22.8°C 84% 8.2 mph S13.2 kmh S 15.0 mph24.1 kmh 29.14 in986.8 mb 0.00 in0.0 mm 0.00 in0.0 mm 0.00 in0.0 mm
03:20 AM 78.0°F25.6°C 72.7°F22.6°C 84% 5.1 mph S8.2 kmh S 17.4 mph28.0 kmh 29.14 in986.8 mb 0.00 in0.0 mm 0.00 in0.0 mm 0.00 in0.0 mm
03:25 AM 77.5°F25.3°C 72.3°F22.4°C 84% 11.5 mph SSE18.5 kmh SSE 22.4 mph36.0 kmh 29.14 in986.8 mb 0.00 in0.0 mm 0.00 in0.0 mm 0.00 in0.0 mm
03:30 AM 77.2°F25.1°C 72.3°F22.4°C 85% 6.0 mph SSE9.7 kmh SSE 9.8 mph15.8 kmh 29.14 in986.8 mb 0.00 in0.0 mm 0.00 in0.0 mm 0.00 in0.0 mm
03:35 AM 77.2°F25.1°C 72.3°F22.4°C 85% 7.3 mph SSE11.7 kmh SSE 9.8 mph15.8 kmh 29.14 in986.8 mb 0.00 in0.0 mm 0.00 in0.0 mm 0.00 in0.0 mm
03:40 AM 77.2°F25.1°C 72.3°F22.4°C 85% 6.7 mph SSE10.8 kmh SSE 12.3 mph19.8 kmh 29.13 in986.5 mb 0.00 in0.0 mm 0.00 in0.0 mm 0.00 in0.0 mm
03:45 AM 77.2°F25.1°C 72.5°F22.5°C 86% 6.2 mph S10.0 kmh S 12.3 mph19.8 kmh 29.13 in986.5 mb 0.00 in0.0 mm 0.00 in0.0 mm 0.00 in0.0 mm
03:50 AM 77.2°F25.1°C 72.7°F22.6°C 86% 9.5 mph SSE15.3 kmh SSE 22.4 mph36.0 kmh 29.13 in986.5 mb 0.00 in0.0 mm 0.00 in0.0 mm 0.00 in0.0 mm
03:55 AM 77.2°F25.1°C 72.7°F22.6°C 86% 5.6 mph S9.0 kmh S 12.3 mph19.8 kmh 29.13 in986.5 mb 0.00 in0.0 mm 0.00 in0.0 mm 0.00 in0.0 mm
04:00 AM 77.2°F25.1°C 72.8°F22.7°C 86% 6.6 mph S10.6 kmh S 9.8 mph15.8 kmh 29.13 in986.5 mb 0.00 in0.0 mm 0.00 in0.0 mm 0.00 in0.0 mm
04:05 AM 77.2°F25.1°C 73.0°F22.8°C 87% 4.1 mph SSE6.6 kmh SSE 7.4 mph11.9 kmh 29.13 in986.5 mb 0.00 in0.0 mm 0.00 in0.0 mm 0.00 in0.0 mm
04:10 AM 77.2°F25.1°C 73.0°F22.8°C 87% 8.7 mph SE14.0 kmh SE 17.4 mph28.0 kmh 29.13 in986.5 mb 0.00 in0.0 mm 0.00 in0.0 mm 0.00 in0.0 mm
04:15 AM 77.2°F25.1°C 73.0°F22.8°C 87% 8.0 mph S12.9 kmh S 15.0 mph24.1 kmh 29.13 in986.5 mb 0.00 in0.0 mm 0.00 in0.0 mm 0.00 in0.0 mm
04:20 AM 77.2°F25.1°C 73.0°F22.8°C 87% 9.6 mph S15.4 kmh S 17.4 mph28.0 kmh 29.13 in986.5 mb 0.00 in0.0 mm 0.00 in0.0 mm 0.00 in0.0 mm
04:25 AM 77.2°F25.1°C 73.0°F22.8°C 87% 5.0 mph SSE8.0 kmh SSE 12.3 mph19.8 kmh 29.13 in986.5 mb 0.00 in0.0 mm 0.00 in0.0 mm 0.00 in0.0 mm
04:30 AM 77.2°F25.1°C 73.1°F22.8°C 87% 6.4 mph SSE10.3 kmh SSE 15.0 mph24.1 kmh 29.14 in986.8 mb 0.00 in0.0 mm 0.00 in0.0 mm 0.00 in0.0 mm
04:35 AM 77.2°F25.1°C 73.4°F23.0°C 88% 7.0 mph SSE11.3 kmh SSE 12.3 mph19.8 kmh 29.14 in986.8 mb 0.00 in0.0 mm 0.00 in0.0 mm 0.00 in0.0 mm
04:40 AM 77.2°F25.1°C 73.4°F23.0°C 88% 4.2 mph S6.8 kmh S 7.4 mph11.9 kmh 29.15 in987.1 mb 0.00 in0.0 mm 0.00 in0.0 mm 0.00 in0.0 mm
04:45 AM 77.2°F25.1°C 73.4°F23.0°C 88% 4.6 mph SSE7.4 kmh SSE 7.4 mph11.9 kmh 29.15 in987.1 mb 0.00 in0.0 mm 0.00 in0.0 mm 0.00 in0.0 mm
04:50 AM 77.2°F25.1°C 73.5°F23.1°C 88% 3.4 mph S5.5 kmh S 7.4 mph11.9 kmh 29.15 in987.1 mb 0.00 in0.0 mm 0.00 in0.0 mm 0.00 in0.0 mm
04:55 AM 77.0°F25.0°C 73.5°F23.1°C 89% 4.7 mph SSE7.6 kmh SSE 9.8 mph15.8 kmh 29.15 in987.1 mb 0.00 in0.0 mm 0.00 in0.0 mm 0.00 in0.0 mm
05:00 AM 77.0°F25.0°C 73.5°F23.1°C 89% 4.8 mph SSE7.7 kmh SSE 7.4 mph11.9 kmh 29.16 in987.5 mb 0.00 in0.0 mm 0.00 in0.0 mm 0.00 in0.0 mm
05:05 AM 77.0°F25.0°C 73.5°F23.1°C 89% 3.3 mph S5.3 kmh S 7.4 mph11.9 kmh 29.15 in987.1 mb 0.00 in0.0 mm 0.00 in0.0 mm 0.00 in0.0 mm
05:10 AM 77.0°F25.0°C 73.5°F23.1°C 89% 8.1 mph SSE13.0 kmh SSE 15.0 mph24.1 kmh 29.15 in987.1 mb 0.00 in0.0 mm 0.00 in0.0 mm 0.00 in0.0 mm
05:15 AM 77.0°F25.0°C 73.5°F23.1°C 89% 6.2 mph SSE10.0 kmh SSE 9.8 mph15.8 kmh 29.16 in987.5 mb 0.00 in0.0 mm 0.00 in0.0 mm 0.00 in0.0 mm
05:20 AM 77.0°F25.0°C 73.5°F23.1°C 89% 3.7 mph S6.0 kmh S 7.4 mph11.9 kmh 29.16 in987.5 mb 0.00 in0.0 mm 0.00 in0.0 mm 0.00 in0.0 mm
05:25 AM 77.0°F25.0°C 73.5°F23.1°C 89% 5.4 mph S8.7 kmh S 9.8 mph15.8 kmh 29.16 in987.5 mb 0.00 in0.0 mm 0.00 in0.0 mm 0.00 in0.0 mm
05:30 AM 77.2°F25.1°C 73.7°F23.2°C 89% 5.1 mph S8.2 kmh S 7.4 mph11.9 kmh 29.16 in987.5 mb 0.00 in0.0 mm 0.00 in0.0 mm 0.00 in0.0 mm
05:35 AM 77.2°F25.1°C 73.7°F23.2°C 89% 5.6 mph S9.0 kmh S 12.3 mph19.8 kmh 29.16 in987.5 mb 0.00 in0.0 mm 0.00 in0.0 mm 0.00 in0.0 mm
05:40 AM 77.2°F25.1°C 73.7°F23.2°C 89% 6.6 mph S10.6 kmh S 12.3 mph19.8 kmh 29.16 in987.5 mb 0.00 in0.0 mm 0.00 in0.0 mm 0.00 in0.0 mm
05:45 AM 77.2°F25.1°C 73.7°F23.2°C 89% 5.7 mph S9.2 kmh S 9.8 mph15.8 kmh 29.16 in987.5 mb 0.00 in0.0 mm 0.00 in0.0 mm 0.00 in0.0 mm
05:50 AM 77.2°F25.1°C 73.7°F23.2°C 89% 5.2 mph S8.4 kmh S 12.3 mph19.8 kmh 29.16 in987.5 mb 0.00 in0.0 mm 0.00 in0.0 mm 0.00 in0.0 mm
05:55 AM 77.2°F25.1°C 73.7°F23.2°C 89% 5.6 mph S9.0 kmh S 9.8 mph15.8 kmh 29.16 in987.5 mb 0.00 in0.0 mm 0.00 in0.0 mm 0.00 in0.0 mm
06:00 AM 77.2°F25.1°C 73.7°F23.2°C 89% 3.5 mph S5.6 kmh S 12.3 mph19.8 kmh 29.16 in987.5 mb 0.00 in0.0 mm 0.00 in0.0 mm 0.00 in0.0 mm
06:05 AM 77.2°F25.1°C 73.5°F23.1°C 88% 5.9 mph SSE9.5 kmh SSE 7.4 mph11.9 kmh 29.16 in987.5 mb 0.00 in0.0 mm 0.00 in0.0 mm 0.00 in0.0 mm
06:10 AM 77.0°F25.0°C 73.2°F22.9°C 88% 5.0 mph S8.0 kmh S 12.3 mph19.8 kmh 29.16 in987.5 mb 0.00 in0.0 mm 0.00 in0.0 mm 0.00 in0.0 mm
06:15 AM 77.0°F25.0°C 73.2°F22.9°C 88% 5.3 mph S8.5 kmh S 9.8 mph15.8 kmh 29.16 in987.5 mb 0.00 in0.0 mm 0.00 in0.0 mm 0.00 in0.0 mm
06:20 AM 77.0°F25.0°C 73.2°F22.9°C 88% 3.9 mph S6.3 kmh S 9.8 mph15.8 kmh 29.16 in987.5 mb 0.00 in0.0 mm 0.00 in0.0 mm 0.00 in0.0 mm
06:25 AM 77.0°F25.0°C 73.2°F22.9°C 88% 4.5 mph S7.2 kmh S 9.8 mph15.8 kmh 29.16 in987.5 mb 0.00 in0.0 mm 0.00 in0.0 mm 0.00 in0.0 mm
06:30 AM 77.2°F25.1°C 73.4°F23.0°C 88% 5.9 mph SE9.5 kmh SE 15.0 mph24.1 kmh 29.16 in987.5 mb 0.00 in0.0 mm 0.00 in0.0 mm 0.00 in0.0 mm
06:35 AM 77.2°F25.1°C 73.4°F23.0°C 88% 4.7 mph SSE7.6 kmh SSE 7.4 mph11.9 kmh 29.16 in987.5 mb 0.00 in0.0 mm 0.00 in0.0 mm 0.00 in0.0 mm
06:40 AM 77.2°F25.1°C 73.4°F23.0°C 88% 5.6 mph SSE9.0 kmh SSE 12.3 mph19.8 kmh 29.16 in987.5 mb 0.00 in0.0 mm 0.00 in0.0 mm 0.00 in0.0 mm
06:45 AM 77.2°F25.1°C 73.4°F23.0°C 88% 4.4 mph S7.1 kmh S 12.3 mph19.8 kmh 29.17 in987.8 mb 0.00 in0.0 mm 0.00 in0.0 mm 0.00 in0.0 mm
06:50 AM 77.2°F25.1°C 73.4°F23.0°C 88% 5.8 mph SSE9.3 kmh SSE 12.3 mph19.8 kmh 29.17 in987.8 mb 0.00 in0.0 mm 0.00 in0.0 mm 0.00 in0.0 mm
06:55 AM 77.2°F25.1°C 73.1°F22.8°C 87% 3.8 mph SSW6.1 kmh SSW 9.8 mph15.8 kmh 29.17 in987.8 mb 0.00 in0.0 mm 0.00 in0.0 mm 0.00 in0.0 mm
07:00 AM 77.2°F25.1°C 73.0°F22.8°C 87% 5.4 mph SE8.7 kmh SE 12.3 mph19.8 kmh 29.17 in987.8 mb 0.00 in0.0 mm 0.00 in0.0 mm 0.00 in0.0 mm
07:05 AM 77.2°F25.1°C 73.0°F22.8°C 87% 4.6 mph S7.4 kmh S 7.4 mph11.9 kmh 29.17 in987.8 mb 0.00 in0.0 mm 0.00 in0.0 mm 0.00 in0.0 mm
07:10 AM 77.2°F25.1°C 73.0°F22.8°C 87% 5.3 mph SSE8.5 kmh SSE 12.3 mph19.8 kmh 29.17 in987.8 mb 0.00 in0.0 mm 0.00 in0.0 mm 0.00 in0.0 mm
07:15 AM 77.2°F25.1°C 73.0°F22.8°C 87% 5.0 mph S8.0 kmh S 9.8 mph15.8 kmh 29.17 in987.8 mb 0.00 in0.0 mm 0.00 in0.0 mm 0.00 in0.0 mm
07:20 AM 77.2°F25.1°C 72.7°F22.6°C 86% 2.8 mph S4.5 kmh S 7.4 mph11.9 kmh 29.17 in987.8 mb 0.00 in0.0 mm 0.00 in0.0 mm 0.00 in0.0 mm
07:25 AM 77.2°F25.1°C 72.4°F22.4°C 85% 3.6 mph S5.8 kmh S 7.4 mph11.9 kmh 29.17 in987.8 mb 0.00 in0.0 mm 0.00 in0.0 mm 0.00 in0.0 mm
07:30 AM 77.2°F25.1°C 72.3°F22.4°C 85% 2.7 mph SSW4.3 kmh SSW 4.9 mph7.9 kmh 29.17 in987.8 mb 0.00 in0.0 mm 0.00 in0.0 mm 0.00 in0.0 mm
07:35 AM 77.2°F25.1°C 72.6°F22.6°C 86% 2.6 mph SSW4.2 kmh SSW 7.4 mph11.9 kmh 29.18 in988.1 mb 0.00 in0.0 mm 0.00 in0.0 mm 0.00 in0.0 mm
07:40 AM 77.2°F25.1°C 72.7°F22.6°C 86% 5.4 mph SE8.7 kmh SE 9.8 mph15.8 kmh 29.18 in988.1 mb 0.00 in0.0 mm 0.00 in0.0 mm 0.00 in0.0 mm
07:45 AM 77.2°F25.1°C 72.6°F22.6°C 86% 4.8 mph S7.7 kmh S 9.8 mph15.8 kmh 29.18 in988.1 mb 0.00 in0.0 mm 0.00 in0.0 mm 0.00 in0.0 mm
07:50 AM 77.2°F25.1°C 72.3°F22.4°C 85% 5.2 mph SSE8.4 kmh SSE 12.3 mph19.8 kmh 29.18 in988.1 mb 0.00 in0.0 mm 0.00 in0.0 mm 0.00 in0.0 mm
07:55 AM 77.2°F25.1°C 72.0°F22.2°C 84% 5.1 mph SSE8.2 kmh SSE 9.8 mph15.8 kmh 29.18 in988.1 mb 0.00 in0.0 mm 0.00 in0.0 mm 0.00 in0.0 mm
08:00 AM 77.2°F25.1°C 72.0°F22.2°C 84% 4.4 mph SSW7.1 kmh SSW 9.8 mph15.8 kmh 29.18 in988.1 mb 0.00 in0.0 mm 0.00 in0.0 mm 0.00 in0.0 mm
08:05 AM 77.3°F25.2°C 71.9°F22.2°C 83% 4.7 mph SSE7.6 kmh SSE 9.8 mph15.8 kmh 29.18 in988.1 mb 0.00 in0.0 mm 0.00 in0.0 mm 0.00 in0.0 mm
08:10 AM 78.6°F25.9°C 72.8°F22.7°C 83% 5.4 mph S8.7 kmh S 9.8 mph15.8 kmh 29.19 in988.5 mb 0.00 in0.0 mm 0.00 in0.0 mm 0.00 in0.0 mm
08:15 AM 78.6°F25.9°C 72.6°F22.6°C 82% 6.7 mph S10.8 kmh S 12.3 mph19.8 kmh 29.18 in988.1 mb 0.00 in0.0 mm 0.00 in0.0 mm 0.00 in0.0 mm
08:20 AM 78.6°F25.9°C 72.3°F22.4°C 81% 7.7 mph SSE12.4 kmh SSE 15.0 mph24.1 kmh 29.19 in988.5 mb 0.00 in0.0 mm 0.00 in0.0 mm 0.00 in0.0 mm
08:25 AM 78.6°F25.9°C 72.1°F22.3°C 80% 5.0 mph S8.0 kmh S 12.3 mph19.8 kmh 29.19 in988.5 mb 0.00 in0.0 mm 0.00 in0.0 mm 0.00 in0.0 mm
08:30 AM 78.8°F26.0°C 71.4°F21.9°C 78% 6.3 mph S10.1 kmh S 15.0 mph24.1 kmh 29.19 in988.5 mb 0.00 in0.0 mm 0.00 in0.0 mm 0.00 in0.0 mm
08:35 AM 78.8°F26.0°C 71.2°F21.8°C 78% 4.2 mph SE6.8 kmh SE 7.4 mph11.9 kmh 29.19 in988.5 mb 0.00 in0.0 mm 0.00 in0.0 mm 0.00 in0.0 mm
08:40 AM 79.0°F26.1°C 70.8°F21.6°C 76% 5.8 mph S9.3 kmh S 12.3 mph19.8 kmh 29.19 in988.5 mb 0.00 in0.0 mm 0.00 in0.0 mm 0.00 in0.0 mm
08:45 AM 79.1°F26.2°C 70.4°F21.3°C 75% 3.0 mph S4.8 kmh S 9.8 mph15.8 kmh 29.19 in988.5 mb 0.00 in0.0 mm 0.00 in0.0 mm 0.00 in0.0 mm
08:50 AM 80.2°F26.8°C 70.6°F21.4°C 73% 6.4 mph S10.3 kmh S 19.9 mph32.0 kmh 29.19 in988.5 mb 0.00 in0.0 mm 0.00 in0.0 mm 0.00 in0.0 mm
08:55 AM 80.7°F27.1°C 71.2°F21.8°C 73% 5.1 mph SSW8.2 kmh SSW 12.3 mph19.8 kmh 29.20 in988.8 mb 0.00 in0.0 mm 0.00 in0.0 mm 0.00 in0.0 mm
09:00 AM 80.5°F26.9°C 70.8°F21.6°C 72% 7.0 mph S11.3 kmh S 15.0 mph24.1 kmh 29.20 in988.8 mb 0.00 in0.0 mm 0.00 in0.0 mm 0.00 in0.0 mm
09:05 AM 80.3°F26.8°C 70.6°F21.4°C 72% 4.6 mph SSW7.4 kmh SSW 9.8 mph15.8 kmh 29.20 in988.8 mb 0.00 in0.0 mm 0.00 in0.0 mm 0.00 in0.0 mm
09:10 AM 80.2°F26.8°C 70.5°F21.4°C 72% 3.0 mph SW4.8 kmh SW 4.9 mph7.9 kmh 29.20 in988.8 mb 0.00 in0.0 mm 0.00 in0.0 mm 0.00 in0.0 mm
09:15 AM 80.2°F26.8°C 70.2°F21.2°C 72% 3.2 mph SSW5.1 kmh SSW 9.8 mph15.8 kmh 29.20 in988.8 mb 0.00 in0.0 mm 0.00 in0.0 mm 0.00 in0.0 mm
09:20 AM 80.3°F26.8°C 69.4°F20.8°C 70% 2.8 mph SW4.5 kmh SW 7.4 mph11.9 kmh 29.20 in988.8 mb 0.00 in0.0 mm 0.00 in0.0 mm 0.00 in0.0 mm
09:25 AM 80.7°F27.1°C 68.4°F20.2°C 66% 5.2 mph S8.4 kmh S 17.4 mph28.0 kmh 29.20 in988.8 mb 0.00 in0.0 mm 0.00 in0.0 mm 0.00 in0.0 mm
09:30 AM 81.8°F27.7°C 69.1°F20.6°C 65% 4.7 mph SSW7.6 kmh SSW 9.8 mph15.8 kmh 29.19 in988.5 mb 0.00 in0.0 mm 0.00 in0.0 mm 0.00 in0.0 mm
09:35 AM 82.4°F28.0°C 69.5°F20.8°C 65% 5.0 mph SSW8.0 kmh SSW 7.4 mph11.9 kmh 29.20 in988.8 mb 0.00 in0.0 mm 0.00 in0.0 mm 0.00 in0.0 mm
09:40 AM 82.4°F28.0°C 69.3°F20.7°C 65% 8.6 mph SSE13.8 kmh SSE 17.4 mph28.0 kmh 29.20 in988.8 mb 0.00 in0.0 mm 0.00 in0.0 mm 0.00 in0.0 mm
09:45 AM 82.4°F28.0°C 69.4°F20.8°C 65% 5.3 mph S8.5 kmh S 9.8 mph15.8 kmh 29.19 in988.5 mb 0.00 in0.0 mm 0.00 in0.0 mm 0.00 in0.0 mm
09:50 AM 82.5°F28.1°C 69.5°F20.8°C 65% 10.4 mph S16.7 kmh S 19.9 mph32.0 kmh 29.19 in988.5 mb 0.00 in0.0 mm 0.00 in0.0 mm 0.00 in0.0 mm
09:55 AM 82.6°F28.1°C 69.5°F20.8°C 65% 5.7 mph S9.2 kmh S 15.0 mph24.1 kmh 29.19 in988.5 mb 0.00 in0.0 mm 0.00 in0.0 mm 0.00 in0.0 mm
10:00 AM 82.6°F28.1°C 69.6°F20.9°C 65% 5.5 mph SSW8.9 kmh SSW 9.8 mph15.8 kmh 29.19 in988.5 mb 0.00 in0.0 mm 0.00 in0.0 mm 0.00 in0.0 mm
10:05 AM 82.8°F28.2°C 69.4°F20.8°C 64% 6.1 mph S9.8 kmh S 12.3 mph19.8 kmh 29.18 in988.1 mb 0.00 in0.0 mm 0.00 in0.0 mm 0.00 in0.0 mm
10:10 AM 83.1°F28.4°C 69.7°F20.9°C 64% 7.2 mph SSE11.6 kmh SSE 15.0 mph24.1 kmh 29.18 in988.1 mb 0.00 in0.0 mm 0.00 in0.0 mm 0.00 in0.0 mm
10:15 AM 83.3°F28.5°C 69.8°F21.0°C 64% 8.7 mph S14.0 kmh S 12.3 mph19.8 kmh 29.19 in988.5 mb 0.00 in0.0 mm 0.00 in0.0 mm 0.00 in0.0 mm
10:20 AM 83.3°F28.5°C 69.3°F20.7°C 63% 5.1 mph S8.2 kmh S 9.8 mph15.8 kmh 29.19 in988.5 mb 0.00 in0.0 mm 0.00 in0.0 mm 0.00 in0.0 mm
10:25 AM 83.5°F28.6°C 68.7°F20.4°C 61% 5.6 mph SW9.0 kmh SW 17.4 mph28.0 kmh 29.18 in988.1 mb 0.00 in0.0 mm 0.00 in0.0 mm 0.00 in0.0 mm
10:30 AM 84.0°F28.9°C 68.9°F20.5°C 61% 6.2 mph S10.0 kmh S 9.8 mph15.8 kmh 29.18 in988.1 mb 0.00 in0.0 mm 0.00 in0.0 mm 0.00 in0.0 mm
10:35 AM 84.5°F29.2°C 69.3°F20.7°C 60% 7.0 mph SSE11.3 kmh SSE 17.4 mph28.0 kmh 29.18 in988.1 mb 0.00 in0.0 mm 0.00 in0.0 mm 0.00 in0.0 mm
10:40 AM 84.6°F29.2°C 69.1°F20.6°C 60% 5.0 mph S8.0 kmh S 12.3 mph19.8 kmh 29.18 in988.1 mb 0.00 in0.0 mm 0.00 in0.0 mm 0.00 in0.0 mm
10:45 AM 84.7°F29.3°C 68.5°F20.3°C 58% 6.8 mph SSE10.9 kmh SSE 12.3 mph19.8 kmh 29.18 in988.1 mb 0.00 in0.0 mm 0.00 in0.0 mm 0.00 in0.0 mm
10:50 AM 85.0°F29.4°C 68.5°F20.3°C 58% 9.0 mph S14.5 kmh S 15.0 mph24.1 kmh 29.18 in988.1 mb 0.00 in0.0 mm 0.00 in0.0 mm 0.00 in0.0 mm
10:55 AM 85.4°F29.7°C 68.4°F20.2°C 57% 5.6 mph SW9.0 kmh SW 17.4 mph28.0 kmh 29.18 in988.1 mb 0.00 in0.0 mm 0.00 in0.0 mm 0.00 in0.0 mm
11:00 AM 85.5°F29.7°C 68.4°F20.2°C 57% 4.6 mph S7.4 kmh S 12.3 mph19.8 kmh 29.18 in988.1 mb 0.00 in0.0 mm 0.00 in0.0 mm 0.00 in0.0 mm
11:05 AM 85.7°F29.8°C 69.0°F20.6°C 58% 5.7 mph S9.2 kmh S 12.3 mph19.8 kmh 29.18 in988.1 mb 0.00 in0.0 mm 0.00 in0.0 mm 0.00 in0.0 mm
11:10 AM 85.9°F29.9°C 69.0°F20.6°C 57% 10.7 mph SSE17.2 kmh SSE 19.9 mph32.0 kmh 29.18 in988.1 mb 0.00 in0.0 mm 0.00 in0.0 mm 0.00 in0.0 mm
11:15 AM 86.2°F30.1°C 68.8°F20.4°C 56% 8.6 mph SSE13.8 kmh SSE 17.4 mph28.0 kmh 29.18 in988.1 mb 0.00 in0.0 mm 0.00 in0.0 mm 0.00 in0.0 mm
11:20 AM 86.1°F30.1°C 68.7°F20.4°C 56% 7.1 mph S11.4 kmh S 15.0 mph24.1 kmh 29.18 in988.1 mb 0.00 in0.0 mm 0.00 in0.0 mm 0.00 in0.0 mm
11:25 AM 86.2°F30.1°C 68.6°F20.3°C 56% 8.9 mph S14.3 kmh S 17.4 mph28.0 kmh 29.18 in988.1 mb 0.00 in0.0 mm 0.00 in0.0 mm 0.00 in0.0 mm
11:30 AM 86.3°F30.2°C 68.7°F20.4°C 56% 5.0 mph SSE8.0 kmh SSE 15.0 mph24.1 kmh 29.17 in987.8 mb 0.00 in0.0 mm 0.00 in0.0 mm 0.00 in0.0 mm
11:35 AM 86.9°F30.5°C 68.8°F20.4°C 55% 8.4 mph SSE13.5 kmh SSE 15.0 mph24.1 kmh 29.17 in987.8 mb 0.00 in0.0 mm 0.00 in0.0 mm 0.00 in0.0 mm
11:40 AM 86.9°F30.5°C 68.7°F20.4°C 55% 7.1 mph SSE11.4 kmh SSE 19.9 mph32.0 kmh 29.17 in987.8 mb 0.00 in0.0 mm 0.00 in0.0 mm 0.00 in0.0 mm
11:45 AM 87.0°F30.6°C 67.9°F19.9°C 53% 6.1 mph S9.8 kmh S 12.3 mph19.8 kmh 29.17 in987.8 mb 0.00 in0.0 mm 0.00 in0.0 mm 0.00 in0.0 mm
11:50 AM 87.4°F30.8°C 68.2°F20.1°C 53% 6.8 mph S10.9 kmh S 17.4 mph28.0 kmh 29.17 in987.8 mb 0.00 in0.0 mm 0.00 in0.0 mm 0.00 in0.0 mm
11:55 AM 88.0°F31.1°C 68.8°F20.4°C 53% 8.2 mph SSE13.2 kmh SSE 15.0 mph24.1 kmh 29.17 in987.8 mb 0.00 in0.0 mm 0.00 in0.0 mm 0.00 in0.0 mm
12:05 PM 88.2°F31.2°C 67.8°F19.9°C 51% 6.2 mph SSE10.0 kmh SSE 12.3 mph19.8 kmh 29.17 in987.8 mb 0.00 in0.0 mm 0.00 in0.0 mm 0.00 in0.0 mm
12:10 PM 88.3°F31.3°C 68.2°F20.1°C 52% 6.7 mph SE10.8 kmh SE 17.4 mph28.0 kmh 29.17 in987.8 mb 0.00 in0.0 mm 0.00 in0.0 mm 0.00 in0.0 mm
12:15 PM 88.7°F31.5°C 68.5°F20.3°C 52% 8.6 mph SSE13.8 kmh SSE 19.9 mph32.0 kmh 29.17 in987.8 mb 0.00 in0.0 mm 0.00 in0.0 mm 0.00 in0.0 mm
12:20 PM 88.9°F31.6°C 67.9°F19.9°C 50% 5.2 mph S8.4 kmh S 15.0 mph24.1 kmh 29.16 in987.5 mb 0.00 in0.0 mm 0.00 in0.0 mm 0.00 in0.0 mm
12:25 PM 89.1°F31.7°C 68.3°F20.2°C 50% 11.0 mph SE17.7 kmh SE 22.4 mph36.0 kmh 29.16 in987.5 mb 0.00 in0.0 mm 0.00 in0.0 mm 0.00 in0.0 mm
12:30 PM 89.2°F31.8°C 68.6°F20.3°C 51% 8.6 mph S13.8 kmh S 19.9 mph32.0 kmh 29.17 in987.8 mb 0.00 in0.0 mm 0.00 in0.0 mm 0.00 in0.0 mm
12:35 PM 89.2°F31.8°C 67.9°F19.9°C 50% 5.7 mph S9.2 kmh S 12.3 mph19.8 kmh 29.16 in987.5 mb 0.00 in0.0 mm 0.00 in0.0 mm 0.00 in0.0 mm
12:40 PM 89.3°F31.8°C 67.8°F19.9°C 49% 8.2 mph SSE13.2 kmh SSE 17.4 mph28.0 kmh 29.16 in987.5 mb 0.00 in0.0 mm 0.00 in0.0 mm 0.00 in0.0 mm
12:45 PM 89.4°F31.9°C 68.6°F20.3°C 50% 7.9 mph SSE12.7 kmh SSE 15.0 mph24.1 kmh 29.16 in987.5 mb 0.00 in0.0 mm 0.00 in0.0 mm 0.00 in0.0 mm
12:50 PM 89.5°F31.9°C 67.8°F19.9°C 49% 7.3 mph S11.7 kmh S 19.9 mph32.0 kmh 29.16 in987.5 mb 0.00 in0.0 mm 0.00 in0.0 mm 0.00 in0.0 mm
12:55 PM 90.7°F32.6°C 69.0°F20.6°C 49% 4.8 mph SSW7.7 kmh SSW 9.8 mph15.8 kmh 29.16 in987.5 mb 0.00 in0.0 mm 0.00 in0.0 mm 0.00 in0.0 mm
01:00 PM 90.8°F32.7°C 67.8°F19.9°C 47% 6.7 mph SSE10.8 kmh SSE 17.4 mph28.0 kmh 29.16 in987.5 mb 0.00 in0.0 mm 0.00 in0.0 mm 0.00 in0.0 mm
01:05 PM 90.9°F32.7°C 69.1°F20.6°C 49% 10.7 mph S17.2 kmh S 17.4 mph28.0 kmh 29.16 in987.5 mb 0.00 in0.0 mm 0.00 in0.0 mm 0.00 in0.0 mm
01:10 PM 90.9°F32.7°C 69.3°F20.7°C 49% 6.0 mph SE9.7 kmh SE 9.8 mph15.8 kmh 29.17 in987.8 mb 0.00 in0.0 mm 0.00 in0.0 mm 0.00 in0.0 mm
01:15 PM 90.9°F32.7°C 68.4°F20.2°C 48% 3.9 mph SSW6.3 kmh SSW 7.4 mph11.9 kmh 29.17 in987.8 mb 0.00 in0.0 mm 0.00 in0.0 mm 0.00 in0.0 mm
01:20 PM 90.9°F32.7°C 68.5°F20.3°C 48% 4.1 mph S6.6 kmh S 7.4 mph11.9 kmh 29.17 in987.8 mb 0.00 in0.0 mm 0.00 in0.0 mm 0.00 in0.0 mm
01:30 PM 90.9°F32.7°C 69.1°F20.6°C 49% 3.4 mph SE5.5 kmh SE 4.9 mph7.9 kmh 29.17 in987.8 mb 0.00 in0.0 mm 0.00 in0.0 mm 0.00 in0.0 mm
01:35 PM 91.4°F33.0°C 69.5°F20.8°C 49% 8.8 mph S14.2 kmh S 15.0 mph24.1 kmh 29.17 in987.8 mb 0.00 in0.0 mm 0.00 in0.0 mm 0.00 in0.0 mm
01:40 PM 91.2°F32.9°C 69.1°F20.6°C 49% 7.9 mph S12.7 kmh S 17.4 mph28.0 kmh 29.17 in987.8 mb 0.00 in0.0 mm 0.00 in0.0 mm 0.00 in0.0 mm
01:45 PM 91.0°F32.8°C 69.3°F20.7°C 49% 9.8 mph SSE15.8 kmh SSE 17.4 mph28.0 kmh 29.18 in988.1 mb 0.00 in0.0 mm 0.00 in0.0 mm 0.00 in0.0 mm
01:50 PM 90.7°F32.6°C 68.7°F20.4°C 49% 7.8 mph S12.6 kmh S 15.0 mph24.1 kmh 29.18 in988.1 mb 0.00 in0.0 mm 0.00 in0.0 mm 0.00 in0.0 mm
01:55 PM 90.8°F32.7°C 68.1°F20.1°C 48% 7.4 mph SSE11.9 kmh SSE 17.4 mph28.0 kmh 29.17 in987.8 mb 0.00 in0.0 mm 0.00 in0.0 mm 0.00 in0.0 mm
02:00 PM 90.9°F32.7°C 69.1°F20.6°C 49% 7.3 mph SSE11.7 kmh SSE 12.3 mph19.8 kmh 29.17 in987.8 mb 0.00 in0.0 mm 0.00 in0.0 mm 0.00 in0.0 mm
02:05 PM 91.0°F32.8°C 68.8°F20.4°C 48% 8.1 mph S13.0 kmh S 9.8 mph15.8 kmh 29.17 in987.8 mb 0.00 in0.0 mm 0.00 in0.0 mm 0.00 in0.0 mm
02:10 PM 91.4°F33.0°C 68.7°F20.4°C 48% 7.5 mph S12.1 kmh S 12.3 mph19.8 kmh 29.17 in987.8 mb 0.00 in0.0 mm 0.00 in0.0 mm 0.00 in0.0 mm
02:15 PM 91.4°F33.0°C 69.2°F20.7°C 48% 6.4 mph SSE10.3 kmh SSE 15.0 mph24.1 kmh 29.17 in987.8 mb 0.00 in0.0 mm 0.00 in0.0 mm 0.00 in0.0 mm
02:20 PM 91.5°F33.1°C 69.7°F20.9°C 49% 4.9 mph SE7.9 kmh SE 12.3 mph19.8 kmh 29.17 in987.8 mb 0.00 in0.0 mm 0.00 in0.0 mm 0.00 in0.0 mm
02:25 PM 91.7°F33.2°C 69.1°F20.6°C 48% 6.1 mph SSE9.8 kmh SSE 15.0 mph24.1 kmh 29.16 in987.5 mb 0.00 in0.0 mm 0.00 in0.0 mm 0.00 in0.0 mm
02:30 PM 92.1°F33.4°C 69.3°F20.7°C 48% 9.1 mph SE14.6 kmh SE 19.9 mph32.0 kmh 29.16 in987.5 mb 0.00 in0.0 mm 0.00 in0.0 mm 0.00 in0.0 mm
02:35 PM 91.9°F33.3°C 69.9°F21.1°C 49% 7.1 mph SE11.4 kmh SE 9.8 mph15.8 kmh 29.16 in987.5 mb 0.00 in0.0 mm 0.00 in0.0 mm 0.00 in0.0 mm
02:40 PM 91.9°F33.3°C 69.9°F21.1°C 49% 9.0 mph SE14.5 kmh SE 17.4 mph28.0 kmh 29.16 in987.5 mb 0.00 in0.0 mm 0.00 in0.0 mm 0.00 in0.0 mm
02:45 PM 91.7°F33.2°C 70.0°F21.1°C 49% 8.2 mph SE13.2 kmh SE 12.3 mph19.8 kmh 29.16 in987.5 mb 0.00 in0.0 mm 0.00 in0.0 mm 0.00 in0.0 mm
02:50 PM 91.3°F32.9°C 68.9°F20.5°C 48% 8.7 mph SSE14.0 kmh SSE 15.0 mph24.1 kmh 29.15 in987.1 mb 0.00 in0.0 mm 0.00 in0.0 mm 0.00 in0.0 mm
02:55 PM 91.3°F32.9°C 69.4°F20.8°C 49% 5.0 mph SE8.0 kmh SE 9.8 mph15.8 kmh 29.15 in987.1 mb 0.00 in0.0 mm 0.00 in0.0 mm 0.00 in0.0 mm
03:00 PM 91.4°F33.0°C 68.7°F20.4°C 48% 8.6 mph SSE13.8 kmh SSE 15.0 mph24.1 kmh 29.15 in987.1 mb 0.00 in0.0 mm 0.00 in0.0 mm 0.00 in0.0 mm
03:05 PM 91.4°F33.0°C 69.0°F20.6°C 48% 6.6 mph SSE10.6 kmh SSE 9.8 mph15.8 kmh 29.15 in987.1 mb 0.00 in0.0 mm 0.00 in0.0 mm 0.00 in0.0 mm
03:10 PM 91.8°F33.2°C 70.1°F21.2°C 49% 6.5 mph SSE10.5 kmh SSE 9.8 mph15.8 kmh 29.15 in987.1 mb 0.00 in0.0 mm 0.00 in0.0 mm 0.00 in0.0 mm
03:15 PM 91.8°F33.2°C 70.2°F21.2°C 50% 5.2 mph SSE8.4 kmh SSE 9.8 mph15.8 kmh 29.14 in986.8 mb 0.00 in0.0 mm 0.00 in0.0 mm 0.00 in0.0 mm
03:20 PM 91.8°F33.2°C 69.6°F20.9°C 48% 7.0 mph S11.3 kmh S 17.4 mph28.0 kmh 29.15 in987.1 mb 0.00 in0.0 mm 0.00 in0.0 mm 0.00 in0.0 mm
03:25 PM 91.8°F33.2°C 70.1°F21.2°C 49% 6.8 mph SSE10.9 kmh SSE 15.0 mph24.1 kmh 29.14 in986.8 mb 0.00 in0.0 mm 0.00 in0.0 mm 0.00 in0.0 mm
03:30 PM 91.6°F33.1°C 70.2°F21.2°C 50% 4.6 mph SSE7.4 kmh SSE 12.3 mph19.8 kmh 29.14 in986.8 mb 0.00 in0.0 mm 0.00 in0.0 mm 0.00 in0.0 mm
03:35 PM 91.6°F33.1°C 69.6°F20.9°C 49% 5.5 mph SSE8.9 kmh SSE 9.8 mph15.8 kmh 29.13 in986.5 mb 0.00 in0.0 mm 0.00 in0.0 mm 0.00 in0.0 mm
03:40 PM 91.8°F33.2°C 69.5°F20.8°C 48% 3.1 mph SW5.0 kmh SW 7.4 mph11.9 kmh 29.13 in986.5 mb 0.00 in0.0 mm 0.00 in0.0 mm 0.00 in0.0 mm
03:45 PM 92.0°F33.3°C 68.5°F20.3°C 46% 7.5 mph SSE12.1 kmh SSE 19.9 mph32.0 kmh 29.13 in986.5 mb 0.00 in0.0 mm 0.00 in0.0 mm 0.00 in0.0 mm
03:50 PM 92.3°F33.5°C 69.0°F20.6°C 47% 8.9 mph SSE14.3 kmh SSE 19.9 mph32.0 kmh 29.13 in986.5 mb 0.00 in0.0 mm 0.00 in0.0 mm 0.00 in0.0 mm
03:55 PM 92.3°F33.5°C 69.1°F20.6°C 47% 9.5 mph SE15.3 kmh SE 17.4 mph28.0 kmh 29.12 in986.1 mb 0.00 in0.0 mm 0.00 in0.0 mm 0.00 in0.0 mm
04:00 PM 92.3°F33.5°C 69.2°F20.7°C 47% 8.5 mph S13.7 kmh S 17.4 mph28.0 kmh 29.12 in986.1 mb 0.00 in0.0 mm 0.00 in0.0 mm 0.00 in0.0 mm
04:05 PM 92.3°F33.5°C 68.7°F20.4°C 46% 6.1 mph SSE9.8 kmh SSE 12.3 mph19.8 kmh 29.12 in986.1 mb 0.00 in0.0 mm 0.00 in0.0 mm 0.00 in0.0 mm
04:10 PM 92.8°F33.8°C 69.1°F20.6°C 46% 9.9 mph SSE15.9 kmh SSE 19.9 mph32.0 kmh 29.12 in986.1 mb 0.00 in0.0 mm 0.00 in0.0 mm 0.00 in0.0 mm
04:15 PM 92.7°F33.7°C 69.0°F20.6°C 46% 4.9 mph SSE7.9 kmh SSE 9.8 mph15.8 kmh 29.11 in985.8 mb 0.00 in0.0 mm 0.00 in0.0 mm 0.00 in0.0 mm
04:20 PM 92.8°F33.8°C 68.1°F20.1°C 45% 4.9 mph SE7.9 kmh SE 9.8 mph15.8 kmh 29.11 in985.8 mb 0.00 in0.0 mm 0.00 in0.0 mm 0.00 in0.0 mm
04:25 PM 93.0°F33.9°C 68.3°F20.2°C 45% 8.2 mph SSE13.2 kmh SSE 15.0 mph24.1 kmh 29.11 in985.8 mb 0.00 in0.0 mm 0.00 in0.0 mm 0.00 in0.0 mm
04:30 PM 93.4°F34.1°C 68.1°F20.1°C 44% 8.1 mph SSE13.0 kmh SSE 17.4 mph28.0 kmh 29.10 in985.4 mb 0.00 in0.0 mm 0.00 in0.0 mm 0.00 in0.0 mm
04:35 PM 93.6°F34.2°C 67.9°F19.9°C 43% 4.3 mph S6.9 kmh S 9.8 mph15.8 kmh 29.10 in985.4 mb 0.00 in0.0 mm 0.00 in0.0 mm 0.00 in0.0 mm
04:40 PM 93.7°F34.3°C 67.5°F19.7°C 43% 6.1 mph SSW9.8 kmh SSW 9.8 mph15.8 kmh 29.09 in985.1 mb 0.00 in0.0 mm 0.00 in0.0 mm 0.00 in0.0 mm
04:45 PM 93.8°F34.3°C 67.4°F19.7°C 42% 3.1 mph S5.0 kmh S 9.8 mph15.8 kmh 29.09 in985.1 mb 0.00 in0.0 mm 0.00 in0.0 mm 0.00 in0.0 mm
04:50 PM 94.7°F34.8°C 68.1°F20.1°C 42% 9.5 mph S15.3 kmh S 17.4 mph28.0 kmh 29.10 in985.4 mb 0.00 in0.0 mm 0.00 in0.0 mm 0.00 in0.0 mm
04:55 PM 94.6°F34.8°C 68.0°F20.0°C 42% 6.9 mph S11.1 kmh S 15.0 mph24.1 kmh 29.09 in985.1 mb 0.00 in0.0 mm 0.00 in0.0 mm 0.00 in0.0 mm
05:00 PM 94.6°F34.8°C 67.7°F19.8°C 42% 6.5 mph SSE10.5 kmh SSE 15.0 mph24.1 kmh 29.10 in985.4 mb 0.00 in0.0 mm 0.00 in0.0 mm 0.00 in0.0 mm
05:05 PM 94.5°F34.7°C 67.6°F19.8°C 42% 7.0 mph SSE11.3 kmh SSE 12.3 mph19.8 kmh 29.10 in985.4 mb 0.00 in0.0 mm 0.00 in0.0 mm 0.00 in0.0 mm
05:10 PM 94.8°F34.9°C 67.8°F19.9°C 42% 5.6 mph SSE9.0 kmh SSE 9.8 mph15.8 kmh 29.10 in985.4 mb 0.00 in0.0 mm 0.00 in0.0 mm 0.00 in0.0 mm
05:15 PM 94.7°F34.8°C 68.1°F20.1°C 42% 9.5 mph SSE15.3 kmh SSE 19.9 mph32.0 kmh 29.09 in985.1 mb 0.00 in0.0 mm 0.00 in0.0 mm 0.00 in0.0 mm
05:20 PM 94.6°F34.8°C 68.6°F20.3°C 43% 7.5 mph SE12.1 kmh SE 9.8 mph15.8 kmh 29.09 in985.1 mb 0.00 in0.0 mm 0.00 in0.0 mm 0.00 in0.0 mm
05:25 PM 94.6°F34.8°C 68.1°F20.1°C 42% 7.0 mph SSE11.3 kmh SSE 19.9 mph32.0 kmh 29.09 in985.1 mb 0.00 in0.0 mm 0.00 in0.0 mm 0.00 in0.0 mm
05:30 PM 95.4°F35.2°C 67.4°F19.7°C 40% 6.2 mph SE10.0 kmh SE 15.0 mph24.1 kmh 29.09 in985.1 mb 0.00 in0.0 mm 0.00 in0.0 mm 0.00 in0.0 mm
05:35 PM 95.5°F35.3°C 67.4°F19.7°C 40% 5.9 mph SSE9.5 kmh SSE 15.0 mph24.1 kmh 29.09 in985.1 mb 0.00 in0.0 mm 0.00 in0.0 mm 0.00 in0.0 mm
05:40 PM 95.5°F35.3°C 68.1°F20.1°C 41% 5.9 mph SSE9.5 kmh SSE 9.8 mph15.8 kmh 29.09 in985.1 mb 0.00 in0.0 mm 0.00 in0.0 mm 0.00 in0.0 mm
05:45 PM 95.3°F35.2°C 69.0°F20.6°C 43% 7.5 mph SSE12.1 kmh SSE 12.3 mph19.8 kmh 29.09 in985.1 mb 0.00 in0.0 mm 0.00 in0.0 mm 0.00 in0.0 mm
05:50 PM 95.0°F35.0°C 69.4°F20.8°C 44% 3.1 mph SE5.0 kmh SE 4.9 mph7.9 kmh 29.09 in985.1 mb 0.00 in0.0 mm 0.00 in0.0 mm 0.00 in0.0 mm
05:55 PM 94.8°F34.9°C 69.9°F21.1°C 45% 5.0 mph SSE8.0 kmh SSE 9.8 mph15.8 kmh 29.10 in985.4 mb 0.00 in0.0 mm 0.00 in0.0 mm 0.00 in0.0 mm
06:00 PM 94.6°F34.8°C 69.7°F20.9°C 45% 6.6 mph SSE10.6 kmh SSE 15.0 mph24.1 kmh 29.09 in985.1 mb 0.00 in0.0 mm 0.00 in0.0 mm 0.00 in0.0 mm
06:05 PM 94.6°F34.8°C 70.0°F21.1°C 45% 5.6 mph SSE9.0 kmh SSE 9.8 mph15.8 kmh 29.09 in985.1 mb 0.00 in0.0 mm 0.00 in0.0 mm 0.00 in0.0 mm
06:10 PM 94.3°F34.6°C 70.5°F21.4°C 46% 7.5 mph SSE12.1 kmh SSE 15.0 mph24.1 kmh 29.09 in985.1 mb 0.00 in0.0 mm 0.00 in0.0 mm 0.00 in0.0 mm
06:15 PM 94.1°F34.5°C 70.7°F21.5°C 47% 7.9 mph SE12.7 kmh SE 15.0 mph24.1 kmh 29.09 in985.1 mb 0.00 in0.0 mm 0.00 in0.0 mm 0.00 in0.0 mm
06:20 PM 93.9°F34.4°C 70.6°F21.4°C 47% 5.6 mph SE9.0 kmh SE 9.8 mph15.8 kmh 29.09 in985.1 mb 0.00 in0.0 mm 0.00 in0.0 mm 0.00 in0.0 mm
06:25 PM 93.8°F34.3°C 70.6°F21.4°C 47% 5.9 mph S9.5 kmh S 15.0 mph24.1 kmh 29.08 in984.8 mb 0.00 in0.0 mm 0.00 in0.0 mm 0.00 in0.0 mm
06:30 PM 93.5°F34.2°C 70.7°F21.5°C 48% 6.3 mph SSE10.1 kmh SSE 12.3 mph19.8 kmh 29.09 in985.1 mb 0.00 in0.0 mm 0.00 in0.0 mm 0.00 in0.0 mm
06:35 PM 93.2°F34.0°C 70.7°F21.5°C 48% 7.8 mph SSE12.6 kmh SSE 15.0 mph24.1 kmh 29.09 in985.1 mb 0.00 in0.0 mm 0.00 in0.0 mm 0.00 in0.0 mm
06:40 PM 93.1°F33.9°C 70.8°F21.6°C 48% 8.6 mph SE13.8 kmh SE 12.3 mph19.8 kmh 29.09 in985.1 mb 0.00 in0.0 mm 0.00 in0.0 mm 0.00 in0.0 mm
06:45 PM 92.9°F33.8°C 70.9°F21.6°C 49% 8.1 mph SSE13.0 kmh SSE 12.3 mph19.8 kmh 29.08 in984.8 mb 0.00 in0.0 mm 0.00 in0.0 mm 0.00 in0.0 mm
06:50 PM 92.7°F33.7°C 70.9°F21.6°C 49% 5.1 mph SSE8.2 kmh SSE 12.3 mph19.8 kmh 29.09 in985.1 mb 0.00 in0.0 mm 0.00 in0.0 mm 0.00 in0.0 mm
06:55 PM 92.7°F33.7°C 70.6°F21.4°C 49% 8.1 mph SSE13.0 kmh SSE 12.3 mph19.8 kmh 29.09 in985.1 mb 0.00 in0.0 mm 0.00 in0.0 mm 0.00 in0.0 mm
07:00 PM 92.5°F33.6°C 70.5°F21.4°C 49% 5.7 mph SE9.2 kmh SE 12.3 mph19.8 kmh 29.09 in985.1 mb 0.00 in0.0 mm 0.00 in0.0 mm 0.00 in0.0 mm
07:05 PM 92.5°F33.6°C 71.5°F21.9°C 51% 5.5 mph SSE8.9 kmh SSE 12.3 mph19.8 kmh 29.09 in985.1 mb 0.00 in0.0 mm 0.00 in0.0 mm 0.00 in0.0 mm
07:10 PM 92.3°F33.5°C 72.2°F22.3°C 52% 3.8 mph SE6.1 kmh SE 7.4 mph11.9 kmh 29.09 in985.1 mb 0.00 in0.0 mm 0.00 in0.0 mm 0.00 in0.0 mm
07:15 PM 91.9°F33.3°C 72.3°F22.4°C 53% 4.5 mph SE7.2 kmh SE 9.8 mph15.8 kmh 29.09 in985.1 mb 0.00 in0.0 mm 0.00 in0.0 mm 0.00 in0.0 mm
07:20 PM 91.9°F33.3°C 72.3°F22.4°C 53% 5.6 mph SE9.0 kmh SE 9.8 mph15.8 kmh 29.09 in985.1 mb 0.00 in0.0 mm 0.00 in0.0 mm 0.00 in0.0 mm
07:25 PM 91.8°F33.2°C 71.9°F22.2°C 52% 4.9 mph SE7.9 kmh SE 12.3 mph19.8 kmh 29.09 in985.1 mb 0.00 in0.0 mm 0.00 in0.0 mm 0.00 in0.0 mm
07:30 PM 91.4°F33.0°C 70.7°F21.5°C 51% 9.9 mph SSE15.9 kmh SSE 17.4 mph28.0 kmh 29.09 in985.1 mb 0.00 in0.0 mm 0.00 in0.0 mm 0.00 in0.0 mm
07:35 PM 91.0°F32.8°C 70.9°F21.6°C 52% 7.0 mph SSE11.3 kmh SSE 12.3 mph19.8 kmh 29.09 in985.1 mb 0.00 in0.0 mm 0.00 in0.0 mm 0.00 in0.0 mm
07:40 PM 91.0°F32.8°C 71.0°F21.7°C 52% 6.3 mph SE10.1 kmh SE 9.8 mph15.8 kmh 29.09 in985.1 mb 0.00 in0.0 mm 0.00 in0.0 mm 0.00 in0.0 mm
07:45 PM 90.9°F32.7°C 71.7°F22.1°C 54% 9.2 mph SSE14.8 kmh SSE 15.0 mph24.1 kmh 29.08 in984.8 mb 0.00 in0.0 mm 0.00 in0.0 mm 0.00 in0.0 mm
07:50 PM 90.4°F32.4°C 72.3°F22.4°C 56% 7.4 mph SE11.9 kmh SE 12.3 mph19.8 kmh 29.09 in985.1 mb 0.00 in0.0 mm 0.00 in0.0 mm 0.00 in0.0 mm
07:55 PM 89.4°F31.9°C 72.5°F22.5°C 58% 7.4 mph SE11.9 kmh SE 12.3 mph19.8 kmh 29.09 in985.1 mb 0.00 in0.0 mm 0.00 in0.0 mm 0.00 in0.0 mm
08:00 PM 89.4°F31.9°C 72.8°F22.7°C 58% 5.4 mph SSE8.7 kmh SSE 12.3 mph19.8 kmh 29.09 in985.1 mb 0.00 in0.0 mm 0.00 in0.0 mm 0.00 in0.0 mm
08:05 PM 89.4°F31.9°C 73.1°F22.8°C 59% 5.6 mph SE9.0 kmh SE 12.3 mph19.8 kmh 29.09 in985.1 mb 0.00 in0.0 mm 0.00 in0.0 mm 0.00 in0.0 mm
08:10 PM 89.0°F31.7°C 72.7°F22.6°C 59% 4.4 mph SE7.1 kmh SE 9.8 mph15.8 kmh 29.08 in984.8 mb 0.00 in0.0 mm 0.00 in0.0 mm 0.00 in0.0 mm
08:15 PM 88.5°F31.4°C 72.3°F22.4°C 59% 6.2 mph SSE10.0 kmh SSE 9.8 mph15.8 kmh 29.08 in984.8 mb 0.00 in0.0 mm 0.00 in0.0 mm 0.00 in0.0 mm
08:20 PM 88.5°F31.4°C 72.8°F22.7°C 60% 6.8 mph SSE10.9 kmh SSE 9.8 mph15.8 kmh 29.08 in984.8 mb 0.00 in0.0 mm 0.00 in0.0 mm 0.00 in0.0 mm
08:25 PM 88.5°F31.4°C 72.8°F22.7°C 60% 7.3 mph SSE11.7 kmh SSE 17.4 mph28.0 kmh 29.09 in985.1 mb 0.00 in0.0 mm 0.00 in0.0 mm 0.00 in0.0 mm
08:30 PM 88.4°F31.3°C 72.8°F22.7°C 60% 4.9 mph SE7.9 kmh SE 12.3 mph19.8 kmh 29.08 in984.8 mb 0.00 in0.0 mm 0.00 in0.0 mm 0.00 in0.0 mm
08:35 PM 88.2°F31.2°C 72.5°F22.5°C 60% 5.7 mph SSE9.2 kmh SSE 12.3 mph19.8 kmh 29.08 in984.8 mb 0.00 in0.0 mm 0.00 in0.0 mm 0.00 in0.0 mm
08:40 PM 88.2°F31.2°C 72.5°F22.5°C 60% 7.9 mph SE12.7 kmh SE 17.4 mph28.0 kmh 29.08 in984.8 mb 0.00 in0.0 mm 0.00 in0.0 mm 0.00 in0.0 mm
08:45 PM 88.1°F31.2°C 72.5°F22.5°C 60% 8.6 mph SE13.8 kmh SE 15.0 mph24.1 kmh 29.08 in984.8 mb 0.00 in0.0 mm 0.00 in0.0 mm 0.00 in0.0 mm
08:50 PM 88.0°F31.1°C 72.3°F22.4°C 60% 7.1 mph SSE11.4 kmh SSE 12.3 mph19.8 kmh 29.08 in984.8 mb 0.00 in0.0 mm 0.00 in0.0 mm 0.00 in0.0 mm
08:55 PM 87.8°F31.0°C 72.2°F22.3°C 60% 8.3 mph SSE13.4 kmh SSE 17.4 mph28.0 kmh 29.07 in984.4 mb 0.00 in0.0 mm 0.00 in0.0 mm 0.00 in0.0 mm
09:00 PM 87.8°F31.0°C 72.2°F22.3°C 60% 6.3 mph SE10.1 kmh SE 12.3 mph19.8 kmh 29.08 in984.8 mb 0.00 in0.0 mm 0.00 in0.0 mm 0.00 in0.0 mm
09:05 PM 87.6°F30.9°C 72.5°F22.5°C 61% 6.6 mph SSE10.6 kmh SSE 12.3 mph19.8 kmh 29.08 in984.8 mb 0.00 in0.0 mm 0.00 in0.0 mm 0.00 in0.0 mm
09:10 PM 87.6°F30.9°C 72.7°F22.6°C 62% 4.6 mph SSE7.4 kmh SSE 9.8 mph15.8 kmh 29.07 in984.4 mb 0.00 in0.0 mm 0.00 in0.0 mm 0.00 in0.0 mm
09:15 PM 87.3°F30.7°C 72.7°F22.6°C 62% 3.4 mph S5.5 kmh S 7.4 mph11.9 kmh 29.07 in984.4 mb 0.00 in0.0 mm 0.00 in0.0 mm 0.00 in0.0 mm
09:20 PM 87.3°F30.7°C 72.7°F22.6°C 62% 6.5 mph SSE10.5 kmh SSE 12.3 mph19.8 kmh 29.07 in984.4 mb 0.00 in0.0 mm 0.00 in0.0 mm 0.00 in0.0 mm
09:25 PM 87.3°F30.7°C 72.6°F22.6°C 62% 5.0 mph SE8.0 kmh SE 9.8 mph15.8 kmh 29.08 in984.8 mb 0.00 in0.0 mm 0.00 in0.0 mm 0.00 in0.0 mm
09:30 PM 87.1°F30.6°C 72.5°F22.5°C 62% 7.1 mph SSE11.4 kmh SSE 9.8 mph15.8 kmh 29.07 in984.4 mb 0.00 in0.0 mm 0.00 in0.0 mm 0.00 in0.0 mm
09:35 PM 86.7°F30.4°C 72.2°F22.3°C 62% 8.0 mph SSE12.9 kmh SSE 15.0 mph24.1 kmh 29.07 in984.4 mb 0.00 in0.0 mm 0.00 in0.0 mm 0.00 in0.0 mm
09:40 PM 86.7°F30.4°C 72.6°F22.6°C 63% 7.7 mph S12.4 kmh S 12.3 mph19.8 kmh 29.07 in984.4 mb 0.00 in0.0 mm 0.00 in0.0 mm 0.00 in0.0 mm
09:45 PM 86.6°F30.3°C 72.5°F22.5°C 63% 7.2 mph S11.6 kmh S 12.3 mph19.8 kmh 29.07 in984.4 mb 0.00 in0.0 mm 0.00 in0.0 mm 0.00 in0.0 mm
09:50 PM 86.5°F30.3°C 72.4°F22.4°C 63% 6.8 mph SE10.9 kmh SE 15.0 mph24.1 kmh 29.07 in984.4 mb 0.00 in0.0 mm 0.00 in0.0 mm 0.00 in0.0 mm
09:55 PM 86.4°F30.2°C 72.3°F22.4°C 63% 8.4 mph SSE13.5 kmh SSE 12.3 mph19.8 kmh 29.07 in984.4 mb 0.00 in0.0 mm 0.00 in0.0 mm 0.00 in0.0 mm
10:00 PM 86.4°F30.2°C 72.1°F22.3°C 63% 8.5 mph SSE13.7 kmh SSE 17.4 mph28.0 kmh 29.07 in984.4 mb 0.00 in0.0 mm 0.00 in0.0 mm 0.00 in0.0 mm
10:05 PM 86.4°F30.2°C 72.0°F22.2°C 62% 8.0 mph SSE12.9 kmh SSE 15.0 mph24.1 kmh 29.09 in985.1 mb 0.00 in0.0 mm 0.00 in0.0 mm 0.00 in0.0 mm
10:10 PM 86.4°F30.2°C 71.8°F22.1°C 62% 7.0 mph SE11.3 kmh SE 15.0 mph24.1 kmh 29.09 in985.1 mb 0.00 in0.0 mm 0.00 in0.0 mm 0.00 in0.0 mm
10:15 PM 86.4°F30.2°C 71.8°F22.1°C 62% 12.7 mph SSE20.4 kmh SSE 24.8 mph39.9 kmh 29.09 in985.1 mb 0.00 in0.0 mm 0.00 in0.0 mm 0.00 in0.0 mm
10:20 PM 86.3°F30.2°C 71.7°F22.1°C 62% 8.9 mph SSE14.3 kmh SSE 12.3 mph19.8 kmh 29.09 in985.1 mb 0.00 in0.0 mm 0.00 in0.0 mm 0.00 in0.0 mm
10:25 PM 86.2°F30.1°C 71.6°F22.0°C 62% 10.9 mph S17.5 kmh S 24.8 mph39.9 kmh 29.09 in985.1 mb 0.00 in0.0 mm 0.00 in0.0 mm 0.00 in0.0 mm
10:30 PM 86.2°F30.1°C 71.6°F22.0°C 62% 10.3 mph S16.6 kmh S 17.4 mph28.0 kmh 29.09 in985.1 mb 0.00 in0.0 mm 0.00 in0.0 mm 0.00 in0.0 mm
10:35 PM 86.0°F30.0°C 71.5°F21.9°C 62% 9.5 mph S15.3 kmh S 17.4 mph28.0 kmh 29.09 in985.1 mb 0.00 in0.0 mm 0.00 in0.0 mm 0.00 in0.0 mm
10:40 PM 85.8°F29.9°C 71.7°F22.1°C 63% 7.9 mph SSE12.7 kmh SSE 19.9 mph32.0 kmh 29.09 in985.1 mb 0.00 in0.0 mm 0.00 in0.0 mm 0.00 in0.0 mm
10:45 PM 85.8°F29.9°C 71.9°F22.2°C 63% 7.2 mph S11.6 kmh S 12.3 mph19.8 kmh 29.09 in985.1 mb 0.00 in0.0 mm 0.00 in0.0 mm 0.00 in0.0 mm
10:50 PM 85.7°F29.8°C 72.1°F22.3°C 64% 6.0 mph S9.7 kmh S 15.0 mph24.1 kmh 29.09 in985.1 mb 0.00 in0.0 mm 0.00 in0.0 mm 0.00 in0.0 mm
10:55 PM 85.3°F29.6°C 71.7°F22.1°C 64% 5.9 mph S9.5 kmh S 22.4 mph36.0 kmh 29.09 in985.1 mb 0.00 in0.0 mm 0.00 in0.0 mm 0.00 in0.0 mm
11:00 PM 85.3°F29.6°C 71.7°F22.1°C 64% 6.5 mph SSE10.5 kmh SSE 12.3 mph19.8 kmh 29.09 in985.1 mb 0.00 in0.0 mm 0.00 in0.0 mm 0.00 in0.0 mm
11:05 PM 85.1°F29.5°C 71.5°F21.9°C 64% 9.7 mph SE15.6 kmh SE 19.9 mph32.0 kmh 29.09 in985.1 mb 0.00 in0.0 mm 0.00 in0.0 mm 0.00 in0.0 mm
11:10 PM 85.1°F29.5°C 71.5°F21.9°C 64% 11.9 mph S19.2 kmh S 22.4 mph36.0 kmh 29.10 in985.4 mb 0.00 in0.0 mm 0.00 in0.0 mm 0.00 in0.0 mm
11:15 PM 84.9°F29.4°C 71.5°F21.9°C 64% 7.6 mph SSE12.2 kmh SSE 15.0 mph24.1 kmh 29.11 in985.8 mb 0.00 in0.0 mm 0.00 in0.0 mm 0.00 in0.0 mm
11:20 PM 84.7°F29.3°C 71.6°F22.0°C 65% 8.9 mph SE14.3 kmh SE 15.0 mph24.1 kmh 29.11 in985.8 mb 0.00 in0.0 mm 0.00 in0.0 mm 0.00 in0.0 mm
11:25 PM 84.7°F29.3°C 71.6°F22.0°C 65% 6.4 mph SSE10.3 kmh SSE 9.8 mph15.8 kmh 29.11 in985.8 mb 0.00 in0.0 mm 0.00 in0.0 mm 0.00 in0.0 mm
11:30 PM 84.6°F29.2°C 72.1°F22.3°C 66% 7.3 mph SSE11.7 kmh SSE 15.0 mph24.1 kmh 29.11 in985.8 mb 0.00 in0.0 mm 0.00 in0.0 mm 0.00 in0.0 mm
11:35 PM 84.1°F28.9°C 72.2°F22.3°C 68% 6.9 mph SSE11.1 kmh SSE 15.0 mph24.1 kmh 29.10 in985.4 mb 0.00 in0.0 mm 0.00 in0.0 mm 0.00 in0.0 mm
11:40 PM 83.8°F28.8°C 72.1°F22.3°C 68% 8.0 mph SSE12.9 kmh SSE 15.0 mph24.1 kmh 29.10 in985.4 mb 0.00 in0.0 mm 0.00 in0.0 mm 0.00 in0.0 mm
11:45 PM 83.8°F28.8°C 72.4°F22.4°C 69% 4.7 mph SSE7.6 kmh SSE 12.3 mph19.8 kmh 29.11 in985.8 mb 0.00 in0.0 mm 0.00 in0.0 mm 0.00 in0.0 mm
11:50 PM 83.7°F28.7°C 72.4°F22.4°C 69% 6.3 mph SSE10.1 kmh SSE 12.3 mph19.8 kmh 29.10 in985.4 mb 0.00 in0.0 mm 0.00 in0.0 mm 0.00 in0.0 mm
11:55 PM 83.2°F28.4°C 72.0°F22.2°C 69% 6.5 mph SE10.5 kmh SE 12.3 mph19.8 kmh 29.11 in985.8 mb 0.00 in0.0 mm 0.00 in0.0 mm 0.00 in0.0 mm